sensor_id;sensor_type;location;lat;lon;timestamp;P1;durP1;ratioP1;P2;durP2;ratioP2
16440;SDS011;8330;-33.858;151.184;2023-06-10T00:00:31;3.75;;;2.90;;
16440;SDS011;8330;-33.858;151.184;2023-06-10T00:03:02;4.72;;;2.50;;
16440;SDS011;8330;-33.858;151.184;2023-06-10T00:05:34;7.00;;;2.92;;
16440;SDS011;8330;-33.858;151.184;2023-06-10T00:08:06;6.30;;;2.67;;
16440;SDS011;8330;-33.858;151.184;2023-06-10T00:10:40;10.50;;;3.38;;
16440;SDS011;8330;-33.858;151.184;2023-06-10T00:13:11;4.07;;;2.83;;
16440;SDS011;8330;-33.858;151.184;2023-06-10T00:15:43;6.82;;;2.88;;
16440;SDS011;8330;-33.858;151.184;2023-06-10T00:18:14;5.35;;;2.95;;
16440;SDS011;8330;-33.858;151.184;2023-06-10T00:20:47;5.95;;;3.13;;
16440;SDS011;8330;-33.858;151.184;2023-06-10T00:23:21;3.65;;;2.65;;
16440;SDS011;8330;-33.858;151.184;2023-06-10T00:25:56;3.45;;;2.08;;
16440;SDS011;8330;-33.858;151.184;2023-06-10T00:28:29;6.93;;;2.72;;
16440;SDS011;8330;-33.858;151.184;2023-06-10T00:31:00;6.15;;;2.50;;
16440;SDS011;8330;-33.858;151.184;2023-06-10T00:33:32;6.95;;;2.63;;
16440;SDS011;8330;-33.858;151.184;2023-06-10T00:36:03;5.03;;;2.40;;
16440;SDS011;8330;-33.858;151.184;2023-06-10T00:38:34;5.90;;;1.88;;
16440;SDS011;8330;-33.858;151.184;2023-06-10T00:41:08;4.32;;;1.60;;
16440;SDS011;8330;-33.858;151.184;2023-06-10T00:43:41;3.00;;;1.73;;
16440;SDS011;8330;-33.858;151.184;2023-06-10T00:46:14;8.45;;;2.25;;
16440;SDS011;8330;-33.858;151.184;2023-06-10T00:48:45;3.25;;;1.70;;
16440;SDS011;8330;-33.858;151.184;2023-06-10T00:51:21;3.20;;;1.65;;
16440;SDS011;8330;-33.858;151.184;2023-06-10T00:53:53;6.22;;;1.88;;
16440;SDS011;8330;-33.858;151.184;2023-06-10T00:56:28;5.88;;;1.85;;
16440;SDS011;8330;-33.858;151.184;2023-06-10T00:59:01;4.38;;;1.83;;
16440;SDS011;8330;-33.858;151.184;2023-06-10T01:01:32;5.22;;;1.98;;
16440;SDS011;8330;-33.858;151.184;2023-06-10T01:04:05;4.90;;;1.73;;
16440;SDS011;8330;-33.858;151.184;2023-06-10T01:06:40;6.10;;;2.13;;
16440;SDS011;8330;-33.858;151.184;2023-06-10T01:09:23;6.72;;;1.90;;
16440;SDS011;8330;-33.858;151.184;2023-06-10T01:12:10;3.28;;;1.77;;
16440;SDS011;8330;-33.858;151.184;2023-06-10T01:14:47;4.90;;;1.60;;
16440;SDS011;8330;-33.858;151.184;2023-06-10T01:17:18;3.90;;;1.80;;
16440;SDS011;8330;-33.858;151.184;2023-06-10T01:19:54;4.53;;;1.75;;
16440;SDS011;8330;-33.858;151.184;2023-06-10T01:22:30;6.32;;;1.80;;
16440;SDS011;8330;-33.858;151.184;2023-06-10T01:25:02;3.58;;;1.50;;
16440;SDS011;8330;-33.858;151.184;2023-06-10T01:27:34;6.32;;;1.25;;
16440;SDS011;8330;-33.858;151.184;2023-06-10T01:30:10;6.75;;;1.55;;
16440;SDS011;8330;-33.858;151.184;2023-06-10T01:32:45;6.38;;;1.45;;
16440;SDS011;8330;-33.858;151.184;2023-06-10T01:35:19;3.30;;;1.17;;
16440;SDS011;8330;-33.858;151.184;2023-06-10T01:37:59;2.75;;;1.20;;
16440;SDS011;8330;-33.858;151.184;2023-06-10T01:40:33;4.95;;;1.70;;
16440;SDS011;8330;-33.858;151.184;2023-06-10T01:43:06;3.33;;;1.08;;
16440;SDS011;8330;-33.858;151.184;2023-06-10T01:45:39;5.88;;;1.90;;
16440;SDS011;8330;-33.858;151.184;2023-06-10T01:48:10;6.70;;;1.98;;
16440;SDS011;8330;-33.858;151.184;2023-06-10T01:50:43;4.60;;;1.20;;
16440;SDS011;8330;-33.858;151.184;2023-06-10T01:53:17;4.88;;;1.33;;
16440;SDS011;8330;-33.858;151.184;2023-06-10T01:55:48;2.45;;;1.02;;
16440;SDS011;8330;-33.858;151.184;2023-06-10T01:58:21;3.85;;;1.20;;
16440;SDS011;8330;-33.858;151.184;2023-06-10T02:00:53;2.13;;;1.13;;
16440;SDS011;8330;-33.858;151.184;2023-06-10T02:03:26;5.15;;;1.83;;
16440;SDS011;8330;-33.858;151.184;2023-06-10T02:05:58;2.55;;;1.30;;
16440;SDS011;8330;-33.858;151.184;2023-06-10T02:08:33;3.08;;;1.20;;
16440;SDS011;8330;-33.858;151.184;2023-06-10T02:11:04;3.08;;;1.20;;
16440;SDS011;8330;-33.858;151.184;2023-06-10T02:13:35;3.63;;;1.30;;
16440;SDS011;8330;-33.858;151.184;2023-06-10T02:16:08;3.95;;;1.10;;
16440;SDS011;8330;-33.858;151.184;2023-06-10T02:18:43;3.13;;;1.05;;
16440;SDS011;8330;-33.858;151.184;2023-06-10T02:21:14;5.70;;;1.58;;
16440;SDS011;8330;-33.858;151.184;2023-06-10T02:23:49;2.35;;;0.98;;
16440;SDS011;8330;-33.858;151.184;2023-06-10T02:26:22;2.13;;;0.90;;
16440;SDS011;8330;-33.858;151.184;2023-06-10T02:28:54;2.63;;;1.10;;
16440;SDS011;8330;-33.858;151.184;2023-06-10T02:31:26;3.63;;;1.40;;
16440;SDS011;8330;-33.858;151.184;2023-06-10T02:33:57;1.38;;;0.80;;
16440;SDS011;8330;-33.858;151.184;2023-06-10T02:36:31;1.60;;;0.77;;
16440;SDS011;8330;-33.858;151.184;2023-06-10T02:39:06;2.83;;;0.90;;
16440;SDS011;8330;-33.858;151.184;2023-06-10T02:41:38;2.83;;;1.20;;
16440;SDS011;8330;-33.858;151.184;2023-06-10T02:44:11;4.97;;;1.20;;
16440;SDS011;8330;-33.858;151.184;2023-06-10T02:46:43;2.05;;;1.08;;
16440;SDS011;8330;-33.858;151.184;2023-06-10T02:49:16;1.75;;;0.70;;
16440;SDS011;8330;-33.858;151.184;2023-06-10T02:51:47;1.67;;;0.65;;
16440;SDS011;8330;-33.858;151.184;2023-06-10T02:54:22;2.08;;;0.90;;
16440;SDS011;8330;-33.858;151.184;2023-06-10T02:56:54;3.47;;;1.20;;
16440;SDS011;8330;-33.858;151.184;2023-06-10T02:59:27;6.30;;;1.45;;
16440;SDS011;8330;-33.858;151.184;2023-06-10T03:01:58;2.75;;;0.95;;
16440;SDS011;8330;-33.858;151.184;2023-06-10T03:04:30;3.22;;;0.90;;
16440;SDS011;8330;-33.858;151.184;2023-06-10T03:07:04;2.05;;;0.77;;
16440;SDS011;8330;-33.858;151.184;2023-06-10T03:09:42;1.33;;;0.80;;
16440;SDS011;8330;-33.858;151.184;2023-06-10T03:12:13;3.05;;;1.50;;
16440;SDS011;8330;-33.858;151.184;2023-06-10T03:14:46;2.75;;;1.20;;
16440;SDS011;8330;-33.858;151.184;2023-06-10T03:17:17;4.13;;;0.85;;
16440;SDS011;8330;-33.858;151.184;2023-06-10T03:19:49;1.33;;;0.63;;
16440;SDS011;8330;-33.858;151.184;2023-06-10T03:22:20;5.15;;;0.90;;
16440;SDS011;8330;-33.858;151.184;2023-06-10T03:24:54;1.92;;;0.85;;
16440;SDS011;8330;-33.858;151.184;2023-06-10T03:27:27;3.20;;;0.73;;
16440;SDS011;8330;-33.858;151.184;2023-06-10T03:30:02;2.40;;;1.10;;
16440;SDS011;8330;-33.858;151.184;2023-06-10T03:32:35;1.52;;;0.68;;
16440;SDS011;8330;-33.858;151.184;2023-06-10T03:35:07;1.67;;;0.70;;
16440;SDS011;8330;-33.858;151.184;2023-06-10T03:37:41;2.40;;;0.77;;
16440;SDS011;8330;-33.858;151.184;2023-06-10T03:40:14;2.05;;;0.57;;
16440;SDS011;8330;-33.858;151.184;2023-06-10T03:42:45;2.13;;;0.93;;
16440;SDS011;8330;-33.858;151.184;2023-06-10T03:45:17;1.25;;;0.80;;
16440;SDS011;8330;-33.858;151.184;2023-06-10T03:47:48;3.08;;;0.80;;
16440;SDS011;8330;-33.858;151.184;2023-06-10T03:50:20;4.28;;;1.00;;
16440;SDS011;8330;-33.858;151.184;2023-06-10T03:52:53;2.20;;;0.90;;
16440;SDS011;8330;-33.858;151.184;2023-06-10T03:55:27;2.20;;;0.60;;
16440;SDS011;8330;-33.858;151.184;2023-06-10T03:58:01;3.28;;;0.60;;
16440;SDS011;8330;-33.858;151.184;2023-06-10T04:00:33;2.83;;;1.10;;
16440;SDS011;8330;-33.858;151.184;2023-06-10T04:03:07;5.45;;;1.25;;
16440;SDS011;8330;-33.858;151.184;2023-06-10T04:05:41;4.07;;;1.17;;
16440;SDS011;8330;-33.858;151.184;2023-06-10T04:08:12;3.95;;;1.00;;
16440;SDS011;8330;-33.858;151.184;2023-06-10T04:10:46;1.75;;;0.77;;
16440;SDS011;8330;-33.858;151.184;2023-06-10T04:13:17;2.53;;;0.90;;
16440;SDS011;8330;-33.858;151.184;2023-06-10T04:15:50;1.77;;;0.65;;
16440;SDS011;8330;-33.858;151.184;2023-06-10T04:18:21;1.27;;;0.60;;
16440;SDS011;8330;-33.858;151.184;2023-06-10T04:20:54;2.95;;;0.90;;
16440;SDS011;8330;-33.858;151.184;2023-06-10T04:23:27;4.13;;;0.90;;
16440;SDS011;8330;-33.858;151.184;2023-06-10T04:26:01;2.20;;;0.85;;
16440;SDS011;8330;-33.858;151.184;2023-06-10T04:28:34;2.97;;;1.00;;
16440;SDS011;8330;-33.858;151.184;2023-06-10T04:31:07;1.45;;;0.80;;
16440;SDS011;8330;-33.858;151.184;2023-06-10T04:33:38;1.92;;;0.80;;
16440;SDS011;8330;-33.858;151.184;2023-06-10T04:36:10;2.22;;;0.80;;
16440;SDS011;8330;-33.858;151.184;2023-06-10T04:38:42;3.13;;;1.10;;
16440;SDS011;8330;-33.858;151.184;2023-06-10T04:41:16;3.95;;;1.08;;
16440;SDS011;8330;-33.858;151.184;2023-06-10T04:43:48;2.45;;;0.70;;
16440;SDS011;8330;-33.858;151.184;2023-06-10T04:46:21;3.85;;;1.13;;
16440;SDS011;8330;-33.858;151.184;2023-06-10T04:48:52;2.58;;;1.05;;
16440;SDS011;8330;-33.858;151.184;2023-06-10T04:51:25;2.03;;;0.80;;
16440;SDS011;8330;-33.858;151.184;2023-06-10T04:53:58;3.00;;;0.90;;
16440;SDS011;8330;-33.858;151.184;2023-06-10T04:56:32;1.90;;;0.85;;
16440;SDS011;8330;-33.858;151.184;2023-06-10T04:59:05;3.10;;;1.00;;
16440;SDS011;8330;-33.858;151.184;2023-06-10T05:01:38;3.03;;;1.23;;
16440;SDS011;8330;-33.858;151.184;2023-06-10T05:04:09;3.17;;;0.90;;
16440;SDS011;8330;-33.858;151.184;2023-06-10T05:06:40;3.95;;;1.00;;
16440;SDS011;8330;-33.858;151.184;2023-06-10T05:09:12;3.25;;;1.15;;
16440;SDS011;8330;-33.858;151.184;2023-06-10T05:11:46;2.30;;;1.13;;
16440;SDS011;8330;-33.858;151.184;2023-06-10T05:14:17;1.95;;;1.13;;
16440;SDS011;8330;-33.858;151.184;2023-06-10T05:16:50;3.28;;;1.20;;
16440;SDS011;8330;-33.858;151.184;2023-06-10T05:19:22;2.33;;;1.00;;
16440;SDS011;8330;-33.858;151.184;2023-06-10T05:21:55;3.13;;;1.10;;
16440;SDS011;8330;-33.858;151.184;2023-06-10T05:24:28;3.00;;;1.13;;
16440;SDS011;8330;-33.858;151.184;2023-06-10T05:27:02;2.47;;;0.80;;
16440;SDS011;8330;-33.858;151.184;2023-06-10T05:29:35;1.98;;;0.95;;
16440;SDS011;8330;-33.858;151.184;2023-06-10T05:32:08;2.50;;;1.23;;
16440;SDS011;8330;-33.858;151.184;2023-06-10T05:34:40;2.13;;;0.82;;
16440;SDS011;8330;-33.858;151.184;2023-06-10T05:37:13;3.25;;;1.02;;
16440;SDS011;8330;-33.858;151.184;2023-06-10T05:39:46;3.08;;;1.05;;
16440;SDS011;8330;-33.858;151.184;2023-06-10T05:42:21;5.45;;;1.00;;
16440;SDS011;8330;-33.858;151.184;2023-06-10T05:44:53;2.08;;;0.85;;
16440;SDS011;8330;-33.858;151.184;2023-06-10T05:47:24;3.15;;;0.93;;
16440;SDS011;8330;-33.858;151.184;2023-06-10T05:49:56;2.53;;;0.95;;
16440;SDS011;8330;-33.858;151.184;2023-06-10T05:52:28;3.88;;;0.88;;
16440;SDS011;8330;-33.858;151.184;2023-06-10T05:54:59;1.60;;;0.68;;
16440;SDS011;8330;-33.858;151.184;2023-06-10T05:57:34;1.80;;;0.73;;
16440;SDS011;8330;-33.858;151.184;2023-06-10T06:00:07;3.00;;;0.90;;
16440;SDS011;8330;-33.858;151.184;2023-06-10T06:02:38;4.50;;;1.33;;
16440;SDS011;8330;-33.858;151.184;2023-06-10T06:05:11;3.53;;;1.02;;
16440;SDS011;8330;-33.858;151.184;2023-06-10T06:07:43;3.05;;;0.82;;
16440;SDS011;8330;-33.858;151.184;2023-06-10T06:10:16;3.10;;;1.00;;
16440;SDS011;8330;-33.858;151.184;2023-06-10T06:12:50;3.90;;;1.00;;
16440;SDS011;8330;-33.858;151.184;2023-06-10T06:15:22;4.65;;;0.90;;
16440;SDS011;8330;-33.858;151.184;2023-06-10T06:17:53;2.60;;;0.95;;
16440;SDS011;8330;-33.858;151.184;2023-06-10T06:20:24;2.25;;;0.80;;
16440;SDS011;8330;-33.858;151.184;2023-06-10T06:22:56;2.22;;;0.80;;
16440;SDS011;8330;-33.858;151.184;2023-06-10T06:25:29;2.95;;;1.10;;
16440;SDS011;8330;-33.858;151.184;2023-06-10T06:28:05;2.28;;;0.60;;
16440;SDS011;8330;-33.858;151.184;2023-06-10T06:30:38;3.08;;;0.82;;
16440;SDS011;8330;-33.858;151.184;2023-06-10T06:33:11;3.17;;;0.90;;
16440;SDS011;8330;-33.858;151.184;2023-06-10T06:35:43;1.73;;;0.75;;
16440;SDS011;8330;-33.858;151.184;2023-06-10T06:38:16;2.00;;;0.70;;
16440;SDS011;8330;-33.858;151.184;2023-06-10T06:40:49;3.10;;;0.90;;
16440;SDS011;8330;-33.858;151.184;2023-06-10T06:43:24;3.40;;;0.95;;
16440;SDS011;8330;-33.858;151.184;2023-06-10T06:45:56;3.13;;;0.90;;
16440;SDS011;8330;-33.858;151.184;2023-06-10T06:48:27;3.13;;;1.00;;
16440;SDS011;8330;-33.858;151.184;2023-06-10T06:50:58;2.25;;;1.17;;
16440;SDS011;8330;-33.858;151.184;2023-06-10T06:53:31;2.45;;;1.30;;
16440;SDS011;8330;-33.858;151.184;2023-06-10T06:56:08;1.58;;;1.10;;
16440;SDS011;8330;-33.858;151.184;2023-06-10T06:58:44;2.22;;;1.20;;
16440;SDS011;8330;-33.858;151.184;2023-06-10T07:01:18;2.97;;;1.25;;
16440;SDS011;8330;-33.858;151.184;2023-06-10T07:03:51;3.13;;;1.70;;
16440;SDS011;8330;-33.858;151.184;2023-06-10T07:06:23;5.05;;;1.92;;
16440;SDS011;8330;-33.858;151.184;2023-06-10T07:08:54;5.43;;;2.33;;
16440;SDS011;8330;-33.858;151.184;2023-06-10T07:11:25;4.43;;;2.30;;
16440;SDS011;8330;-33.858;151.184;2023-06-10T07:14:00;6.28;;;3.50;;
16440;SDS011;8330;-33.858;151.184;2023-06-10T07:16:32;7.38;;;3.97;;
16440;SDS011;8330;-33.858;151.184;2023-06-10T07:19:04;5.35;;;2.40;;
16440;SDS011;8330;-33.858;151.184;2023-06-10T07:21:36;5.07;;;2.10;;
16440;SDS011;8330;-33.858;151.184;2023-06-10T07:24:09;3.03;;;1.40;;
16440;SDS011;8330;-33.858;151.184;2023-06-10T07:26:41;4.47;;;1.40;;
16440;SDS011;8330;-33.858;151.184;2023-06-10T07:29:16;4.78;;;1.25;;
16440;SDS011;8330;-33.858;151.184;2023-06-10T07:31:47;3.28;;;1.10;;
16440;SDS011;8330;-33.858;151.184;2023-06-10T07:34:20;2.78;;;1.23;;
16440;SDS011;8330;-33.858;151.184;2023-06-10T07:36:51;4.25;;;1.60;;
16440;SDS011;8330;-33.858;151.184;2023-06-10T07:39:22;6.88;;;1.20;;
16440;SDS011;8330;-33.858;151.184;2023-06-10T07:41:55;3.75;;;1.27;;
16440;SDS011;8330;-33.858;151.184;2023-06-10T07:44:28;3.60;;;1.10;;
16440;SDS011;8330;-33.858;151.184;2023-06-10T07:47:01;3.00;;;1.45;;
16440;SDS011;8330;-33.858;151.184;2023-06-10T07:49:34;2.65;;;1.33;;
16440;SDS011;8330;-33.858;151.184;2023-06-10T07:52:06;4.90;;;1.65;;
16440;SDS011;8330;-33.858;151.184;2023-06-10T07:54:40;3.47;;;1.40;;
16440;SDS011;8330;-33.858;151.184;2023-06-10T07:57:12;4.35;;;1.50;;
16440;SDS011;8330;-33.858;151.184;2023-06-10T07:59:46;2.67;;;1.40;;
16440;SDS011;8330;-33.858;151.184;2023-06-10T08:02:18;3.42;;;1.60;;
16440;SDS011;8330;-33.858;151.184;2023-06-10T08:04:50;5.68;;;1.70;;
16440;SDS011;8330;-33.858;151.184;2023-06-10T08:07:21;3.63;;;1.75;;
16440;SDS011;8330;-33.858;151.184;2023-06-10T08:09:52;5.72;;;1.80;;
16440;SDS011;8330;-33.858;151.184;2023-06-10T08:12:23;7.97;;;2.33;;
16440;SDS011;8330;-33.858;151.184;2023-06-10T08:14:57;5.75;;;2.17;;
16440;SDS011;8330;-33.858;151.184;2023-06-10T08:17:28;4.78;;;2.10;;
16440;SDS011;8330;-33.858;151.184;2023-06-10T08:20:01;7.15;;;2.08;;
16440;SDS011;8330;-33.858;151.184;2023-06-10T08:22:32;4.90;;;1.48;;
16440;SDS011;8330;-33.858;151.184;2023-06-10T08:25:03;4.07;;;1.95;;
16440;SDS011;8330;-33.858;151.184;2023-06-10T08:27:36;6.22;;;1.88;;
16440;SDS011;8330;-33.858;151.184;2023-06-10T08:30:12;5.75;;;2.10;;
16440;SDS011;8330;-33.858;151.184;2023-06-10T08:32:45;7.60;;;2.50;;
16440;SDS011;8330;-33.858;151.184;2023-06-10T08:35:18;5.30;;;2.42;;
16440;SDS011;8330;-33.858;151.184;2023-06-10T08:37:50;4.85;;;2.08;;
16440;SDS011;8330;-33.858;151.184;2023-06-10T08:40:23;5.72;;;2.42;;
16440;SDS011;8330;-33.858;151.184;2023-06-10T08:42:58;6.50;;;2.70;;
16440;SDS011;8330;-33.858;151.184;2023-06-10T08:45:39;7.93;;;3.38;;
16440;SDS011;8330;-33.858;151.184;2023-06-10T08:48:12;6.22;;;2.97;;
16440;SDS011;8330;-33.858;151.184;2023-06-10T08:50:47;5.80;;;2.95;;
16440;SDS011;8330;-33.858;151.184;2023-06-10T08:53:20;6.03;;;2.78;;
16440;SDS011;8330;-33.858;151.184;2023-06-10T08:55:53;6.50;;;2.92;;
16440;SDS011;8330;-33.858;151.184;2023-06-10T08:58:28;5.30;;;3.08;;
16440;SDS011;8330;-33.858;151.184;2023-06-10T09:01:11;5.18;;;2.72;;
16440;SDS011;8330;-33.858;151.184;2023-06-10T09:03:44;5.20;;;2.70;;
16440;SDS011;8330;-33.858;151.184;2023-06-10T09:06:17;7.53;;;2.90;;
16440;SDS011;8330;-33.858;151.184;2023-06-10T09:08:49;4.88;;;2.67;;
16440;SDS011;8330;-33.858;151.184;2023-06-10T09:11:21;8.55;;;3.30;;
16440;SDS011;8330;-33.858;151.184;2023-06-10T09:13:53;7.75;;;3.80;;
16440;SDS011;8330;-33.858;151.184;2023-06-10T09:16:31;7.88;;;3.85;;
16440;SDS011;8330;-33.858;151.184;2023-06-10T09:19:03;8.35;;;3.70;;
16440;SDS011;8330;-33.858;151.184;2023-06-10T09:21:36;6.30;;;3.15;;
16440;SDS011;8330;-33.858;151.184;2023-06-10T09:24:07;8.35;;;4.50;;
16440;SDS011;8330;-33.858;151.184;2023-06-10T09:26:39;9.75;;;4.20;;
16440;SDS011;8330;-33.858;151.184;2023-06-10T09:29:10;8.05;;;3.85;;
16440;SDS011;8330;-33.858;151.184;2023-06-10T09:31:45;7.03;;;3.30;;
16440;SDS011;8330;-33.858;151.184;2023-06-10T09:34:18;6.43;;;3.03;;
16440;SDS011;8330;-33.858;151.184;2023-06-10T09:36:51;6.90;;;3.75;;
16440;SDS011;8330;-33.858;151.184;2023-06-10T09:39:23;8.57;;;4.38;;
16440;SDS011;8330;-33.858;151.184;2023-06-10T09:41:56;9.60;;;5.13;;
16440;SDS011;8330;-33.858;151.184;2023-06-10T09:44:27;11.93;;;5.85;;
16440;SDS011;8330;-33.858;151.184;2023-06-10T09:47:03;8.98;;;5.03;;
16440;SDS011;8330;-33.858;151.184;2023-06-10T09:49:38;10.35;;;4.72;;
16440;SDS011;8330;-33.858;151.184;2023-06-10T09:52:10;8.25;;;4.35;;
16440;SDS011;8330;-33.858;151.184;2023-06-10T09:54:41;8.43;;;3.85;;
16440;SDS011;8330;-33.858;151.184;2023-06-10T09:57:16;8.10;;;4.22;;
16440;SDS011;8330;-33.858;151.184;2023-06-10T09:59:49;7.60;;;3.88;;
16440;SDS011;8330;-33.858;151.184;2023-06-10T10:02:25;7.07;;;3.67;;
16440;SDS011;8330;-33.858;151.184;2023-06-10T10:05:02;7.93;;;3.50;;
16440;SDS011;8330;-33.858;151.184;2023-06-10T10:07:33;5.47;;;2.97;;
16440;SDS011;8330;-33.858;151.184;2023-06-10T10:10:06;7.82;;;3.80;;
16440;SDS011;8330;-33.858;151.184;2023-06-10T10:12:42;14.68;;;5.65;;
16440;SDS011;8330;-33.858;151.184;2023-06-10T10:15:16;10.60;;;7.45;;
16440;SDS011;8330;-33.858;151.184;2023-06-10T10:17:52;15.00;;;7.45;;
16440;SDS011;8330;-33.858;151.184;2023-06-10T10:20:34;16.38;;;7.60;;
16440;SDS011;8330;-33.858;151.184;2023-06-10T10:23:12;11.65;;;6.80;;
16440;SDS011;8330;-33.858;151.184;2023-06-10T10:25:49;18.33;;;11.55;;
16440;SDS011;8330;-33.858;151.184;2023-06-10T10:28:24;17.33;;;12.38;;
16440;SDS011;8330;-33.858;151.184;2023-06-10T10:31:08;22.88;;;15.20;;
16440;SDS011;8330;-33.858;151.184;2023-06-10T10:33:48;23.08;;;14.18;;
16440;SDS011;8330;-33.858;151.184;2023-06-10T10:36:28;17.63;;;10.73;;
16440;SDS011;8330;-33.858;151.184;2023-06-10T10:39:02;13.20;;;9.00;;
16440;SDS011;8330;-33.858;151.184;2023-06-10T10:41:36;17.17;;;10.80;;
16440;SDS011;8330;-33.858;151.184;2023-06-10T10:44:09;16.88;;;11.13;;
16440;SDS011;8330;-33.858;151.184;2023-06-10T10:46:44;17.80;;;10.77;;
16440;SDS011;8330;-33.858;151.184;2023-06-10T10:49:24;13.48;;;10.13;;
16440;SDS011;8330;-33.858;151.184;2023-06-10T10:51:57;17.02;;;10.10;;
16440;SDS011;8330;-33.858;151.184;2023-06-10T10:54:31;16.38;;;9.82;;
16440;SDS011;8330;-33.858;151.184;2023-06-10T10:57:10;13.73;;;8.73;;
16440;SDS011;8330;-33.858;151.184;2023-06-10T10:59:53;15.73;;;9.27;;
16440;SDS011;8330;-33.858;151.184;2023-06-10T11:02:33;17.70;;;9.30;;
16440;SDS011;8330;-33.858;151.184;2023-06-10T11:05:12;16.92;;;9.55;;
16440;SDS011;8330;-33.858;151.184;2023-06-10T11:07:52;15.63;;;8.65;;
16440;SDS011;8330;-33.858;151.184;2023-06-10T11:10:29;16.63;;;9.27;;
16440;SDS011;8330;-33.858;151.184;2023-06-10T11:13:07;16.25;;;9.10;;
16440;SDS011;8330;-33.858;151.184;2023-06-10T11:15:43;18.35;;;9.50;;
16440;SDS011;8330;-33.858;151.184;2023-06-10T11:18:20;14.07;;;8.98;;
16440;SDS011;8330;-33.858;151.184;2023-06-10T11:23:41;12.82;;;8.07;;
16440;SDS011;8330;-33.858;151.184;2023-06-10T11:26:16;15.25;;;8.85;;
16440;SDS011;8330;-33.858;151.184;2023-06-10T11:29:05;13.27;;;8.77;;
16440;SDS011;8330;-33.858;151.184;2023-06-10T11:31:43;16.75;;;9.15;;
16440;SDS011;8330;-33.858;151.184;2023-06-10T11:34:21;12.90;;;8.95;;
16440;SDS011;8330;-33.858;151.184;2023-06-10T11:36:57;13.73;;;9.20;;
16440;SDS011;8330;-33.858;151.184;2023-06-10T11:39:30;15.88;;;8.70;;
16440;SDS011;8330;-33.858;151.184;2023-06-10T11:42:03;13.05;;;8.43;;
16440;SDS011;8330;-33.858;151.184;2023-06-10T11:44:34;14.20;;;8.05;;
16440;SDS011;8330;-33.858;151.184;2023-06-10T11:47:06;14.70;;;8.90;;
16440;SDS011;8330;-33.858;151.184;2023-06-10T11:49:40;15.25;;;8.75;;
16440;SDS011;8330;-33.858;151.184;2023-06-10T11:52:17;16.30;;;8.82;;
16440;SDS011;8330;-33.858;151.184;2023-06-10T11:54:58;16.15;;;9.38;;
16440;SDS011;8330;-33.858;151.184;2023-06-10T11:57:33;14.50;;;9.63;;
16440;SDS011;8330;-33.858;151.184;2023-06-10T12:00:07;16.02;;;9.80;;
16440;SDS011;8330;-33.858;151.184;2023-06-10T12:02:40;15.05;;;9.27;;
16440;SDS011;8330;-33.858;151.184;2023-06-10T12:05:13;13.10;;;9.20;;
16440;SDS011;8330;-33.858;151.184;2023-06-10T12:07:49;17.35;;;9.07;;
16440;SDS011;8330;-33.858;151.184;2023-06-10T12:10:40;12.57;;;8.80;;
16440;SDS011;8330;-33.858;151.184;2023-06-10T12:13:12;13.02;;;8.13;;
16440;SDS011;8330;-33.858;151.184;2023-06-10T12:15:44;14.02;;;8.50;;
16440;SDS011;8330;-33.858;151.184;2023-06-10T12:18:20;13.52;;;8.63;;
16440;SDS011;8330;-33.858;151.184;2023-06-10T12:20:54;13.88;;;8.30;;
16440;SDS011;8330;-33.858;151.184;2023-06-10T12:23:30;13.02;;;8.43;;
16440;SDS011;8330;-33.858;151.184;2023-06-10T12:26:03;14.82;;;8.68;;
16440;SDS011;8330;-33.858;151.184;2023-06-10T12:28:35;12.98;;;8.23;;
16440;SDS011;8330;-33.858;151.184;2023-06-10T12:31:08;11.60;;;8.50;;
16440;SDS011;8330;-33.858;151.184;2023-06-10T12:33:40;11.60;;;7.72;;
16440;SDS011;8330;-33.858;151.184;2023-06-10T12:36:16;10.27;;;6.85;;
16440;SDS011;8330;-33.858;151.184;2023-06-10T12:38:54;12.73;;;6.93;;
16440;SDS011;8330;-33.858;151.184;2023-06-10T12:41:37;9.43;;;6.82;;
16440;SDS011;8330;-33.858;151.184;2023-06-10T12:44:10;10.40;;;6.38;;
16440;SDS011;8330;-33.858;151.184;2023-06-10T12:46:43;9.15;;;5.90;;
16440;SDS011;8330;-33.858;151.184;2023-06-10T12:49:19;8.07;;;5.22;;
16440;SDS011;8330;-33.858;151.184;2023-06-10T12:51:52;10.63;;;5.93;;
16440;SDS011;8330;-33.858;151.184;2023-06-10T12:54:26;9.18;;;5.45;;
16440;SDS011;8330;-33.858;151.184;2023-06-10T12:56:57;7.75;;;5.10;;
16440;SDS011;8330;-33.858;151.184;2023-06-10T12:59:29;9.23;;;4.90;;
16440;SDS011;8330;-33.858;151.184;2023-06-10T13:02:02;7.05;;;4.80;;
16440;SDS011;8330;-33.858;151.184;2023-06-10T13:04:35;8.50;;;4.88;;
16440;SDS011;8330;-33.858;151.184;2023-06-10T13:07:08;6.53;;;4.05;;
16440;SDS011;8330;-33.858;151.184;2023-06-10T13:09:44;8.45;;;4.22;;
16440;SDS011;8330;-33.858;151.184;2023-06-10T13:12:17;9.40;;;4.88;;
16440;SDS011;8330;-33.858;151.184;2023-06-10T13:14:48;9.02;;;5.07;;
16440;SDS011;8330;-33.858;151.184;2023-06-10T13:17:23;9.30;;;5.70;;
16440;SDS011;8330;-33.858;151.184;2023-06-10T13:19:54;7.72;;;5.45;;
16440;SDS011;8330;-33.858;151.184;2023-06-10T13:22:27;10.60;;;6.10;;
16440;SDS011;8330;-33.858;151.184;2023-06-10T13:25:06;9.63;;;6.18;;
16440;SDS011;8330;-33.858;151.184;2023-06-10T13:27:39;9.45;;;6.15;;
16440;SDS011;8330;-33.858;151.184;2023-06-10T13:30:11;11.82;;;7.20;;
16440;SDS011;8330;-33.858;151.184;2023-06-10T13:32:44;11.73;;;7.40;;
16440;SDS011;8330;-33.858;151.184;2023-06-10T13:35:16;14.48;;;7.78;;
16440;SDS011;8330;-33.858;151.184;2023-06-10T13:37:49;10.90;;;7.55;;
16440;SDS011;8330;-33.858;151.184;2023-06-10T13:40:23;10.52;;;6.93;;
16440;SDS011;8330;-33.858;151.184;2023-06-10T13:42:55;12.68;;;7.30;;
16440;SDS011;8330;-33.858;151.184;2023-06-10T13:45:27;12.98;;;8.05;;
16440;SDS011;8330;-33.858;151.184;2023-06-10T13:47:58;15.10;;;7.95;;
16440;SDS011;8330;-33.858;151.184;2023-06-10T13:50:29;12.77;;;7.90;;
16440;SDS011;8330;-33.858;151.184;2023-06-10T13:53:01;11.80;;;7.68;;
16440;SDS011;8330;-33.858;151.184;2023-06-10T13:55:35;11.73;;;8.55;;
16440;SDS011;8330;-33.858;151.184;2023-06-10T13:58:06;13.45;;;9.18;;
16440;SDS011;8330;-33.858;151.184;2023-06-10T14:00:39;11.80;;;8.20;;
16440;SDS011;8330;-33.858;151.184;2023-06-10T14:03:10;12.60;;;8.48;;
16440;SDS011;8330;-33.858;151.184;2023-06-10T14:05:41;13.43;;;9.10;;
16440;SDS011;8330;-33.858;151.184;2023-06-10T14:08:12;12.68;;;8.23;;
16440;SDS011;8330;-33.858;151.184;2023-06-10T14:10:48;15.43;;;8.88;;
16440;SDS011;8330;-33.858;151.184;2023-06-10T14:13:20;12.63;;;8.63;;
16440;SDS011;8330;-33.858;151.184;2023-06-10T14:15:51;13.68;;;8.95;;
16440;SDS011;8330;-33.858;151.184;2023-06-10T14:18:28;16.23;;;9.60;;
16440;SDS011;8330;-33.858;151.184;2023-06-10T14:21:03;12.98;;;9.02;;
16440;SDS011;8330;-33.858;151.184;2023-06-10T14:23:34;13.35;;;8.18;;
16440;SDS011;8330;-33.858;151.184;2023-06-10T14:26:08;12.27;;;8.15;;
16440;SDS011;8330;-33.858;151.184;2023-06-10T14:28:39;14.68;;;8.18;;
16440;SDS011;8330;-33.858;151.184;2023-06-10T14:31:10;11.93;;;7.63;;
16440;SDS011;8330;-33.858;151.184;2023-06-10T14:33:43;11.57;;;7.22;;
16440;SDS011;8330;-33.858;151.184;2023-06-10T14:36:14;11.70;;;7.53;;
16440;SDS011;8330;-33.858;151.184;2023-06-10T14:38:45;10.88;;;7.63;;
16440;SDS011;8330;-33.858;151.184;2023-06-10T14:41:18;10.65;;;6.95;;
16440;SDS011;8330;-33.858;151.184;2023-06-10T14:43:51;11.50;;;6.82;;
16440;SDS011;8330;-33.858;151.184;2023-06-10T14:46:22;9.82;;;7.07;;
16440;SDS011;8330;-33.858;151.184;2023-06-10T14:48:54;9.60;;;6.45;;
16440;SDS011;8330;-33.858;151.184;2023-06-10T14:51:28;11.68;;;7.13;;
16440;SDS011;8330;-33.858;151.184;2023-06-10T14:54:00;8.80;;;6.22;;
16440;SDS011;8330;-33.858;151.184;2023-06-10T14:56:36;9.55;;;6.15;;